To NAV CANADA Home Page Login to a new session Search on AWWS site Feedback and Comments Disclaimer Vers la page française équivalente Tips FAQ What's new on the site To the Forecasts and Observations / NOTAM section To "File a Flight Plan" website Publications and other links Update of the User's profile FIC Telephone Numbers My Weather Data Folder Route Weather Data Regional Weather Data Local Weather Data To the Forecasts and Observations / NOTAM section
Request Generated 07/03/2015 at 03:02:02 UTC . Weather information available at that time is displayed.

METAR/TAF

MONTREAL/PIERRE-ELLIOTT-TRUDEAU INTL/QC    

METAR CYUL 030300Z 25007KT 15SM FEW075 17/08 A2990 RMK AC1 AC TR
SLP124 DENSITY ALT 400FT=
METAR CYUL 030200Z 25008KT 15SM FEW075 FEW240 18/08 A2990 RMK AC1CI1
AC TR CI TR SLP126 DENSITY ALT 400FT=
METAR CYUL 030100Z 24009KT 15SM FEW075 FEW240 19/08 A2989 RMK AC1CI1
SLP121 DENSITY ALT 600FT=

TAF CYUL 030238Z 0303/0324 25008KT P6SM FEW070
BECMG 0305/0307 VRB03KT
FM031500 25012KT P6SM SKC
RMK NXT FCST BY 030600Z=
Your time UTC time
Weather data provided by Environment Canada and NAV CANADA